createdAt,value
2022-12-19T00:02:03.756Z,1.77
2022-12-19T00:04:33.667Z,1.62
2022-12-19T00:07:05.999Z,1.69
2022-12-19T00:09:35.742Z,1.79
2022-12-19T00:12:05.477Z,1.67
2022-12-19T00:14:37.301Z,1.62
2022-12-19T00:17:07.067Z,1.53
2022-12-19T00:19:37.093Z,1.52
2022-12-19T00:22:11.286Z,1.58
2022-12-19T00:24:41.194Z,1.58
2022-12-19T00:27:10.970Z,1.60
2022-12-19T00:29:40.960Z,1.58
2022-12-19T00:32:10.689Z,1.39
2022-12-19T00:34:43.066Z,1.65
2022-12-19T00:37:15.436Z,1.65
2022-12-19T00:39:45.197Z,1.78
2022-12-19T00:42:16.904Z,1.78
2022-12-19T00:44:46.649Z,1.88
2022-12-19T00:47:16.395Z,1.93
2022-12-19T00:49:46.116Z,2.06
2022-12-19T00:52:20.203Z,2.07
2022-12-19T00:54:51.446Z,2.09
2022-12-19T00:57:22.498Z,2.06
2022-12-19T00:59:52.258Z,2.00
2022-12-19T01:02:22.479Z,2.05
2022-12-19T01:04:52.419Z,1.98
2022-12-19T01:07:24.823Z,2.08
2022-12-19T01:09:55.210Z,1.85
2022-12-19T01:12:37.477Z,1.95
2022-12-19T01:15:08.311Z,1.70
2022-12-19T01:17:43.702Z,2.09
2022-12-19T01:20:16.064Z,2.05
2022-12-19T01:22:49.447Z,2.12
2022-12-19T01:25:19.439Z,1.93
2022-12-19T01:27:49.206Z,2.05
2022-12-19T01:30:19.087Z,2.17
2022-12-19T01:32:49.529Z,2.05
2022-12-19T01:35:22.025Z,2.12
2022-12-19T01:38:06.113Z,2.07
2022-12-19T01:40:38.776Z,1.69
2022-12-19T01:43:09.386Z,2.13
2022-12-19T01:45:45.480Z,1.92
2022-12-19T01:48:21.945Z,2.10
2022-12-19T01:51:01.754Z,2.03
2022-12-19T01:53:48.345Z,1.81
2022-12-19T01:56:22.630Z,1.81
2022-12-19T01:59:02.409Z,1.91
2022-12-19T02:01:51.260Z,1.87
2022-12-19T02:04:27.115Z,1.84
2022-12-19T02:07:07.497Z,1.93
2022-12-19T02:09:52.974Z,2.09
2022-12-19T02:12:35.242Z,2.21
2022-12-19T02:15:06.842Z,2.18
2022-12-19T02:17:45.602Z,2.11
2022-12-19T02:20:52.148Z,1.99
2022-12-19T02:23:53.011Z,2.01
2022-12-19T02:26:58.056Z,2.12
2022-12-19T02:29:55.810Z,2.02
2022-12-19T02:32:36.312Z,1.83
2022-12-19T02:35:16.749Z,2.31
2022-12-19T02:37:52.901Z,2.26
2022-12-19T02:40:28.266Z,2.14
2022-12-19T02:43:02.353Z,2.07
2022-12-19T02:45:36.566Z,2.39
2022-12-19T02:48:13.061Z,2.28
2022-12-19T02:50:50.030Z,2.33
2022-12-19T02:53:23.607Z,2.33
2022-12-19T02:56:14.107Z,2.37
2022-12-19T02:58:55.404Z,2.45
2022-12-19T03:01:39.501Z,2.54
2022-12-19T03:04:20.398Z,2.71
2022-12-19T03:06:55.874Z,2.55
2022-12-19T03:09:34.496Z,2.64
2022-12-19T03:12:14.112Z,2.26
2022-12-19T03:14:48.828Z,2.54
2022-12-19T03:17:18.979Z,2.55
2022-12-19T03:19:51.382Z,2.61
2022-12-19T03:22:21.269Z,2.60
2022-12-19T03:24:51.122Z,2.67
2022-12-19T03:27:28.637Z,2.54
2022-12-19T03:30:04.469Z,2.65
2022-12-19T03:32:36.051Z,2.75
2022-12-19T03:35:13.601Z,2.72
2022-12-19T03:37:45.946Z,2.63
2022-12-19T03:40:19.249Z,2.79
2022-12-19T03:43:03.980Z,2.83
2022-12-19T03:45:42.668Z,2.79
2022-12-19T03:48:18.865Z,2.88
2022-12-19T03:51:01.129Z,2.97
2022-12-19T03:53:44.412Z,2.79
2022-12-19T03:56:20.117Z,2.80
2022-12-19T03:58:54.962Z,2.85
2022-12-19T04:01:25.334Z,2.76
2022-12-19T04:03:55.408Z,3.01
2022-12-19T04:06:31.145Z,3.10
2022-12-19T04:09:02.788Z,3.11
2022-12-19T04:11:38.761Z,3.11
2022-12-19T04:14:13.412Z,3.14
2022-12-19T04:16:50.220Z,3.20
2022-12-19T04:19:24.678Z,3.30
2022-12-19T04:22:04.686Z,3.38
2022-12-19T04:24:39.136Z,3.47
2022-12-19T04:27:11.846Z,3.48
2022-12-19T04:29:42.776Z,3.34
2022-12-19T04:32:13.957Z,3.55
2022-12-19T04:34:43.746Z,3.38
2022-12-19T04:37:16.803Z,3.54
2022-12-19T04:39:46.604Z,3.50
2022-12-19T04:42:16.375Z,3.58
2022-12-19T04:44:46.108Z,3.64
2022-12-19T04:47:16.241Z,3.72
2022-12-19T04:49:46.033Z,3.54
2022-12-19T04:52:18.583Z,3.63
2022-12-19T04:54:48.372Z,3.71
2022-12-19T04:57:18.182Z,3.66
2022-12-19T04:59:47.975Z,3.60
2022-12-19T05:02:17.826Z,3.56
2022-12-19T05:04:47.620Z,3.75
2022-12-19T05:07:19.962Z,3.58
2022-12-19T05:09:49.739Z,3.73
2022-12-19T05:12:19.514Z,3.62
2022-12-19T05:14:49.302Z,3.54
2022-12-19T05:17:19.121Z,3.47
2022-12-19T05:19:48.930Z,3.53
2022-12-19T05:22:21.274Z,3.35
2022-12-19T05:24:51.112Z,3.29
2022-12-19T05:27:20.877Z,3.38
2022-12-19T05:29:50.727Z,3.39
2022-12-19T05:32:20.813Z,3.40
2022-12-19T05:34:50.619Z,3.28
2022-12-19T05:37:22.999Z,3.31
2022-12-19T05:39:52.757Z,3.05
2022-12-19T05:42:22.493Z,3.25
2022-12-19T05:44:52.233Z,3.38
2022-12-19T05:47:22.002Z,3.41
2022-12-19T05:49:51.793Z,3.30
2022-12-19T05:52:24.750Z,3.52
2022-12-19T05:54:54.596Z,3.52
2022-12-19T05:57:24.351Z,3.54
2022-12-19T05:59:54.101Z,3.42
2022-12-19T06:02:24.173Z,3.52
2022-12-19T06:04:54.060Z,3.54
2022-12-19T06:07:29.944Z,3.53
2022-12-19T06:09:59.724Z,3.54
2022-12-19T06:12:29.756Z,3.53
2022-12-19T06:14:59.529Z,3.54
2022-12-19T06:17:31.312Z,3.49
2022-12-19T06:20:01.118Z,3.48
2022-12-19T06:22:34.453Z,3.47
2022-12-19T06:25:04.258Z,3.52
2022-12-19T06:27:37.918Z,3.67
2022-12-19T06:30:09.412Z,3.55
2022-12-19T06:32:41.183Z,3.52
2022-12-19T06:35:11.600Z,3.58
2022-12-19T06:37:43.968Z,3.57
2022-12-19T06:40:35.619Z,3.50
2022-12-19T06:43:02.819Z,3.51
2022-12-19T06:45:34.210Z,3.25
2022-12-19T06:48:04.101Z,3.39
2022-12-19T06:50:35.885Z,3.18
2022-12-19T06:53:08.252Z,3.35
2022-12-19T06:55:39.947Z,3.08
2022-12-19T06:58:12.989Z,3.32
2022-12-19T07:00:42.851Z,3.20
2022-12-19T07:03:18.773Z,3.34
2022-12-19T07:05:52.068Z,3.44
2022-12-19T07:08:27.503Z,3.44
2022-12-19T07:10:57.324Z,3.50
2022-12-19T07:13:27.636Z,3.48
2022-12-19T07:16:01.351Z,3.52
2022-12-19T07:18:38.687Z,3.46
2022-12-19T07:21:14.797Z,3.52
2022-12-19T07:23:48.643Z,3.47
2022-12-19T07:26:25.947Z,3.44
2022-12-19T07:28:58.492Z,3.58
2022-12-19T07:31:29.317Z,3.25
2022-12-19T07:34:01.725Z,3.36
2022-12-19T07:36:31.903Z,3.27
2022-12-19T07:39:06.587Z,3.34
2022-12-19T07:41:42.692Z,3.43
2022-12-19T07:44:13.649Z,3.54
2022-12-19T07:46:47.972Z,3.58
2022-12-19T07:49:22.672Z,3.61
2022-12-19T07:51:54.308Z,3.60
2022-12-19T07:54:26.908Z,3.71
2022-12-19T07:57:00.165Z,3.77
2022-12-19T07:59:33.357Z,3.74
2022-12-19T08:02:07.950Z,3.75
2022-12-19T08:04:38.248Z,3.68
2022-12-19T08:07:08.156Z,3.86
2022-12-19T08:09:40.513Z,3.82
2022-12-19T08:12:10.637Z,3.76
2022-12-19T08:14:43.925Z,3.73
2022-12-19T08:17:20.789Z,3.93
2022-12-19T08:19:51.193Z,3.90
2022-12-19T08:22:21.051Z,3.96
2022-12-19T08:24:59.417Z,3.94
2022-12-19T08:27:31.345Z,3.93
2022-12-19T08:30:01.161Z,3.93
2022-12-19T08:32:35.986Z,4.06
2022-12-19T08:35:10.615Z,4.03
2022-12-19T08:37:44.732Z,3.64
2022-12-19T08:40:17.697Z,3.87
2022-12-19T08:42:50.241Z,4.00
2022-12-19T08:45:25.995Z,3.94
2022-12-19T08:47:59.075Z,4.02
2022-12-19T08:50:30.123Z,3.83
2022-12-19T08:52:59.962Z,3.86
2022-12-19T08:55:32.378Z,4.09
2022-12-19T08:58:02.231Z,4.16
2022-12-19T09:00:32.055Z,4.13
2022-12-19T09:03:02.137Z,4.11
2022-12-19T09:06:03.215Z,3.71
2022-12-19T09:08:24.960Z,4.03
2022-12-19T09:11:00.982Z,4.13
2022-12-19T09:13:32.930Z,4.15
2022-12-19T09:16:04.650Z,4.31
2022-12-19T09:18:42.639Z,4.28
2022-12-19T09:21:15.494Z,4.37
2022-12-19T09:23:51.203Z,4.38
2022-12-19T09:26:25.052Z,4.55
2022-12-19T09:29:11.407Z,4.61
2022-12-19T09:31:56.394Z,4.65
2022-12-19T09:34:37.668Z,4.69
2022-12-19T09:37:10.426Z,4.72
2022-12-19T09:39:49.353Z,4.71
2022-12-19T09:42:53.876Z,4.60
2022-12-19T09:45:34.709Z,4.89
2022-12-19T09:48:22.775Z,4.85
2022-12-19T09:51:09.952Z,4.87
2022-12-19T09:53:55.666Z,4.64
2022-12-19T09:56:37.776Z,3.95
2022-12-19T09:59:39.883Z,3.63
2022-12-19T10:02:40.453Z,4.76
2022-12-19T10:06:31.324Z,4.34
2022-12-19T10:08:20.527Z,4.82
2022-12-19T10:12:38.829Z,4.81
2022-12-19T10:14:11.691Z,4.95
2022-12-19T10:17:23.039Z,4.86
2022-12-19T10:20:06.403Z,4.92
2022-12-19T10:22:47.972Z,4.94
2022-12-19T10:25:30.868Z,5.13
2022-12-19T10:28:08.861Z,5.04
2022-12-19T10:30:48.151Z,5.12
2022-12-19T10:33:29.419Z,5.17
2022-12-19T10:36:03.212Z,5.21
2022-12-19T10:38:40.569Z,5.19
2022-12-19T10:41:24.900Z,5.24
2022-12-19T10:44:05.983Z,5.43
2022-12-19T10:46:44.429Z,5.41
2022-12-19T10:49:19.751Z,5.35
2022-12-19T10:52:00.229Z,5.31
2022-12-19T10:54:41.771Z,5.39
2022-12-19T10:57:26.310Z,5.39
2022-12-19T11:00:00.780Z,5.45
2022-12-19T11:02:38.429Z,5.60
2022-12-19T11:05:27.193Z,5.67
2022-12-19T11:08:13.024Z,5.74
2022-12-19T11:12:52.267Z,5.71
2022-12-19T11:20:29.958Z,5.73
2022-12-19T11:21:32.784Z,5.67
2022-12-19T11:29:17.101Z,5.64
2022-12-19T11:29:38.826Z,5.61
2022-12-19T11:30:39.548Z,5.55
2022-12-19T11:30:44.034Z,5.96
2022-12-19T11:34:08.927Z,5.92
2022-12-19T11:36:44.096Z,5.86
2022-12-19T11:39:23.034Z,5.83
2022-12-19T11:42:03.399Z,5.89
2022-12-19T11:44:38.952Z,5.98
2022-12-19T11:47:21.879Z,6.06
2022-12-19T11:49:58.090Z,6.01
2022-12-19T11:55:42.615Z,5.96
2022-12-19T11:58:14.028Z,6.05
2022-12-19T12:00:52.410Z,5.55
2022-12-19T12:03:55.978Z,5.93
2022-12-19T12:06:35.907Z,5.81
2022-12-19T12:11:46.644Z,5.97
2022-12-19T12:22:19.238Z,5.77
2022-12-19T12:26:33.955Z,5.99
2022-12-19T12:30:59.944Z,5.93
2022-12-19T12:31:18.925Z,5.84
2022-12-19T12:31:39.470Z,5.93
2022-12-19T12:31:54.269Z,5.79
2022-12-19T12:32:06.318Z,5.93
2022-12-19T12:35:33.277Z,5.81
2022-12-19T12:38:11.001Z,5.78
2022-12-19T12:39:42.716Z,5.76
2022-12-19T12:42:29.567Z,5.86
2022-12-19T12:45:03.152Z,5.78
2022-12-19T12:47:33.067Z,5.77
2022-12-19T12:50:05.574Z,5.79
2022-12-19T12:52:38.799Z,5.86
2022-12-19T12:55:17.554Z,5.78
2022-12-19T12:57:47.340Z,5.81
2022-12-19T13:00:24.634Z,5.86
2022-12-19T13:02:59.030Z,5.81
2022-12-19T13:05:55.272Z,5.84
2022-12-19T13:08:34.634Z,5.82
2022-12-19T13:11:06.556Z,5.91
2022-12-19T13:13:53.112Z,5.97
2022-12-19T13:16:56.602Z,6.10
2022-12-19T13:19:29.421Z,5.91
2022-12-19T13:22:21.547Z,6.05
2022-12-19T13:24:53.151Z,5.90
2022-12-19T13:27:40.567Z,5.57
2022-12-19T13:30:19.571Z,6.39
2022-12-19T13:33:16.400Z,6.17
2022-12-19T13:39:09.330Z,6.14
2022-12-19T13:40:00.762Z,5.98
2022-12-19T13:41:56.734Z,6.08
2022-12-19T13:44:26.986Z,6.05
2022-12-19T13:46:58.874Z,5.96
2022-12-19T13:49:36.238Z,6.16
2022-12-19T13:52:07.418Z,6.06
2022-12-19T13:54:48.287Z,6.32
2022-12-19T13:57:26.160Z,6.47
2022-12-19T14:00:01.755Z,6.35
2022-12-19T14:02:46.010Z,6.45
2022-12-19T14:06:17.658Z,6.53
2022-12-19T14:08:24.612Z,6.71
2022-12-19T14:11:35.578Z,6.52
2022-12-19T14:14:10.102Z,6.78
2022-12-19T14:16:45.706Z,6.70
2022-12-19T14:19:22.522Z,6.71
2022-12-19T14:22:09.703Z,6.74
2022-12-19T14:26:09.813Z,6.78
2022-12-19T14:28:21.102Z,6.91
2022-12-19T14:30:42.048Z,6.85
2022-12-19T14:33:43.625Z,6.68
2022-12-19T14:36:16.561Z,6.96
2022-12-19T14:39:23.375Z,7.03
2022-12-19T14:42:01.496Z,7.07
2022-12-19T14:54:07.889Z,6.92
2022-12-19T14:54:15.012Z,7.03
2022-12-19T14:54:15.508Z,6.98
2022-12-19T14:54:22.847Z,7.01
2022-12-19T14:59:29.909Z,6.95
2022-12-19T15:02:05.338Z,7.08
2022-12-19T15:04:53.010Z,7.10
2022-12-19T15:07:30.329Z,7.16
2022-12-19T15:11:03.010Z,7.06
2022-12-19T15:14:51.987Z,7.12
2022-12-19T15:16:08.804Z,7.13
2022-12-19T15:18:43.078Z,7.17
2022-12-19T15:21:15.777Z,7.10
2022-12-19T15:23:47.099Z,7.11
2022-12-19T15:26:19.506Z,7.24
2022-12-19T15:28:54.300Z,7.12
2022-12-19T15:31:32.285Z,7.13
2022-12-19T15:36:54.843Z,7.07
2022-12-19T15:39:30.030Z,6.96
2022-12-19T15:42:02.919Z,6.93
2022-12-19T15:44:39.879Z,6.89
2022-12-19T15:47:19.850Z,6.88
2022-12-19T15:49:50.801Z,6.82
2022-12-19T15:52:24.056Z,6.78
2022-12-19T15:54:57.619Z,6.81
2022-12-19T15:57:33.826Z,6.88
2022-12-19T16:00:14.351Z,6.88
2022-12-19T16:05:35.281Z,6.79
2022-12-19T16:08:05.234Z,6.72
2022-12-19T16:10:34.999Z,6.62
2022-12-19T16:13:05.093Z,6.82
2022-12-19T16:15:39.538Z,6.71
2022-12-19T16:18:17.219Z,6.83
2022-12-19T16:20:56.075Z,6.84
2022-12-19T16:23:26.743Z,6.82
2022-12-19T16:25:56.857Z,6.69
2022-12-19T16:28:31.097Z,6.81
2022-12-19T16:31:17.956Z,6.81
2022-12-19T16:33:48.899Z,6.95
2022-12-19T16:36:18.784Z,6.77
2022-12-19T16:38:52.192Z,6.90
2022-12-19T16:41:25.632Z,6.95
2022-12-19T16:43:55.773Z,7.09
2022-12-19T16:46:31.053Z,7.14
2022-12-19T16:49:02.667Z,7.16
2022-12-19T16:51:32.537Z,7.01
2022-12-19T16:54:02.862Z,6.89
2022-12-19T16:56:37.551Z,7.07
2022-12-19T16:59:17.668Z,7.13
2022-12-19T17:01:51.066Z,7.04
2022-12-19T17:04:24.768Z,6.99
2022-12-19T17:06:56.508Z,7.20
2022-12-19T17:09:27.378Z,7.25
2022-12-19T17:12:01.674Z,7.29
2022-12-19T17:14:34.487Z,7.33
2022-12-19T17:17:06.982Z,7.42
2022-12-19T17:19:41.748Z,7.46
2022-12-19T17:22:14.473Z,7.29
2022-12-19T17:24:44.596Z,7.27
2022-12-19T17:27:14.488Z,7.04
2022-12-19T17:29:44.534Z,7.02
2022-12-19T17:32:24.499Z,7.12
2022-12-19T17:34:55.492Z,7.16
2022-12-19T17:37:29.100Z,6.84
2022-12-19T17:39:58.874Z,7.03
2022-12-19T17:42:37.040Z,7.15
2022-12-19T17:45:09.387Z,7.10
2022-12-19T17:47:42.184Z,7.31
2022-12-19T17:50:22.409Z,7.38
2022-12-19T17:52:54.042Z,7.47
2022-12-19T17:55:27.813Z,7.50
2022-12-19T17:58:01.709Z,7.45
2022-12-19T18:00:35.728Z,7.29
2022-12-19T18:03:20.219Z,7.27
2022-12-19T18:05:50.608Z,7.17
2022-12-19T18:08:29.517Z,7.03
2022-12-19T18:11:01.976Z,6.87
2022-12-19T18:13:32.956Z,7.05
2022-12-19T18:16:04.321Z,6.75
2022-12-19T18:18:40.350Z,6.63
2022-12-19T18:21:16.795Z,6.72
2022-12-19T18:23:47.079Z,6.82
2022-12-19T18:26:19.214Z,6.93
2022-12-19T18:28:51.121Z,6.87
2022-12-19T18:31:26.065Z,6.95
2022-12-19T18:34:07.362Z,6.76
2022-12-19T18:36:42.410Z,6.77
2022-12-19T18:39:22.092Z,6.83
2022-12-19T18:41:52.994Z,6.66
2022-12-19T18:44:24.662Z,6.75
2022-12-19T18:46:55.531Z,6.66
2022-12-19T18:49:34.700Z,6.83
2022-12-19T18:52:12.386Z,6.67
2022-12-19T18:54:46.590Z,6.87
2022-12-19T18:57:17.121Z,6.92
2022-12-19T18:59:48.604Z,6.79
2022-12-19T19:02:28.012Z,6.75
2022-12-19T19:05:00.711Z,6.88
2022-12-19T19:07:30.559Z,6.85
2022-12-19T19:10:00.350Z,6.59
2022-12-19T19:12:50.699Z,6.81
2022-12-19T19:15:22.595Z,6.98
2022-12-19T19:17:55.184Z,7.06
2022-12-19T19:20:30.985Z,7.04
2022-12-19T19:23:01.138Z,7.03
2022-12-19T19:25:34.099Z,7.02
2022-12-19T19:28:04.630Z,7.07
2022-12-19T19:30:35.718Z,7.12
2022-12-19T19:33:10.918Z,7.08
2022-12-19T19:35:46.653Z,7.10
2022-12-19T19:38:18.860Z,7.22
2022-12-19T19:40:52.741Z,7.00
2022-12-19T19:43:24.616Z,7.24
2022-12-19T19:45:56.498Z,7.19
2022-12-19T19:48:30.136Z,6.73
2022-12-19T19:51:06.065Z,6.99
2022-12-19T19:53:36.210Z,6.80
2022-12-19T19:56:07.678Z,6.64
2022-12-19T19:58:41.121Z,7.15
2022-12-19T20:01:15.785Z,6.70
2022-12-19T20:03:46.360Z,6.71
2022-12-19T20:06:19.339Z,7.08
2022-12-19T20:08:49.427Z,7.11
2022-12-19T20:11:20.883Z,7.33
2022-12-19T20:13:51.829Z,7.44
2022-12-19T20:16:27.228Z,7.41
2022-12-19T20:18:57.256Z,6.91
2022-12-19T20:21:30.822Z,7.03
2022-12-19T20:24:02.111Z,7.15
2022-12-19T20:26:35.166Z,6.97
2022-12-19T20:29:06.516Z,7.24
2022-12-19T20:31:36.912Z,7.06
2022-12-19T20:34:07.273Z,7.30
2022-12-19T20:36:40.753Z,7.59
2022-12-19T20:39:12.731Z,7.57
2022-12-19T20:41:43.780Z,7.83
2022-12-19T20:44:16.424Z,7.77
2022-12-19T20:46:51.996Z,7.90
2022-12-19T20:49:23.891Z,7.85
2022-12-19T20:51:58.276Z,7.97
2022-12-19T20:54:28.470Z,7.74
2022-12-19T20:56:58.371Z,7.42
2022-12-19T20:59:28.200Z,7.55
2022-12-19T21:02:00.720Z,7.67
2022-12-19T21:04:31.210Z,7.55
2022-12-19T21:07:07.736Z,7.77
2022-12-19T21:09:37.520Z,7.31
2022-12-19T21:12:07.935Z,7.46
2022-12-19T21:14:38.825Z,7.61
2022-12-19T21:17:12.143Z,7.46
2022-12-19T21:19:43.170Z,7.50
2022-12-19T21:22:20.419Z,7.54
2022-12-19T21:24:56.859Z,7.53
2022-12-19T21:27:30.195Z,7.46
2022-12-19T21:30:03.055Z,7.50
2022-12-19T21:32:38.072Z,7.60
2022-12-19T21:35:08.586Z,7.67
2022-12-19T21:37:43.887Z,7.71
2022-12-19T21:40:14.524Z,7.74
2022-12-19T21:42:45.410Z,7.81
2022-12-19T21:45:17.592Z,7.67
2022-12-19T21:47:47.415Z,7.96
2022-12-19T21:50:21.260Z,7.71
2022-12-19T21:52:56.038Z,8.06
2022-12-19T21:55:25.909Z,8.01
2022-12-19T21:57:56.747Z,8.00
2022-12-19T22:00:27.856Z,8.01
2022-12-19T22:03:14.815Z,8.15
2022-12-19T22:05:45.973Z,8.26
2022-12-19T22:08:18.353Z,8.25
2022-12-19T22:10:48.096Z,8.40
2022-12-19T22:13:21.089Z,8.36
2022-12-19T22:15:51.090Z,8.14
2022-12-19T22:18:20.945Z,8.26
2022-12-19T22:20:54.047Z,8.25
2022-12-19T22:23:26.434Z,8.26
2022-12-19T22:26:07.110Z,8.27
2022-12-19T22:28:38.931Z,8.10
2022-12-19T22:31:22.986Z,8.04
2022-12-19T22:33:54.635Z,8.12
2022-12-19T22:36:31.598Z,7.87
2022-12-19T22:39:10.705Z,8.18
2022-12-19T22:41:44.659Z,8.28
2022-12-19T22:44:20.382Z,8.30
2022-12-19T22:46:51.074Z,8.24
2022-12-19T22:49:20.969Z,8.25
2022-12-19T22:51:50.881Z,8.30
2022-12-19T22:54:23.211Z,8.23
2022-12-19T22:56:53.915Z,8.27
2022-12-19T22:59:23.677Z,8.26
2022-12-19T23:01:54.217Z,8.28
2022-12-19T23:04:24.140Z,8.35
2022-12-19T23:06:54.193Z,8.27
2022-12-19T23:09:26.558Z,8.31
2022-12-19T23:11:56.550Z,8.45
2022-12-19T23:14:26.301Z,8.36
2022-12-19T23:16:56.141Z,8.45
2022-12-19T23:19:25.928Z,8.45
2022-12-19T23:21:55.661Z,8.41
2022-12-19T23:24:28.079Z,8.47
2022-12-19T23:26:57.829Z,8.60
2022-12-19T23:29:27.541Z,8.58
2022-12-19T23:31:57.378Z,8.53
2022-12-19T23:34:27.130Z,8.57
2022-12-19T23:37:12.945Z,8.53
2022-12-19T23:39:45.479Z,8.35
2022-12-19T23:42:15.293Z,8.20
2022-12-19T23:44:45.271Z,8.51
2022-12-19T23:47:15.092Z,8.59
2022-12-19T23:49:44.919Z,8.36
2022-12-19T23:52:14.759Z,8.60
2022-12-19T23:54:47.121Z,8.67
2022-12-19T23:57:16.906Z,8.67
2022-12-19T23:59:46.701Z,8.49
